sim
Sign-in with your pilot id or email,
or register
Callsign
Passwort

Schedule Details

Flight Number: DLH2674
Departure: Munich Airport (EDDM) at 08:00
Arrival: Fuerteventura Airport (GCFV) at 12:30
Route: Lufthansa Passenger Schedule. Enter filed route here before submitting Pirep.

Weather Information
Getting current METAR information for EDDM 160220Z 02001KT 3000 1000NE R08L/0550N R08R/0550N BCFG NSC M04/M04 Q1029 NOSIG
Getting current METAR information for GCFV 160230Z AUTO 28005KT 9999 NCD 13/10 Q1018

Schedule Frequency

Route Map